Time;durP1;ratioP1;P1;durP2;ratioP2;P2;SDS_P1;SDS_P2;PMS_P1;PMS_P2;Temp;Humidity;BMP_temperature;BMP_pressure;BME280_temperature;BME280_humidity;BME280_pressure;Samples;Min_cycle;Max_cycle;Signal;HPM_P1;HPM_P2
2022/07/22 00:00:57;;;;;;;11.18;3.33;;;16.20;99.90;;;;;;4995655;28;20044;-76
2022/07/22 00:03:23;;;;;;;11.20;3.38;;;16.20;99.90;;;;;;4994028;28;20034;-77
2022/07/22 00:05:48;;;;;;;12.02;3.55;;;16.20;99.90;;;;;;4999159;28;20041;-77
2022/07/22 00:08:14;;;;;;;13.48;3.40;;;16.30;99.90;;;;;;4995939;28;22251;-77
2022/07/22 00:10:40;;;;;;;7.70;3.10;;;16.20;99.90;;;;;;5008826;28;20050;-77
2022/07/22 00:13:05;;;;;;;7.32;3.33;;;16.20;99.90;;;;;;5001316;28;20031;-77
2022/07/22 00:15:31;;;;;;;11.48;3.22;;;16.20;99.90;;;;;;4986115;28;20167;-77
2022/07/22 00:17:56;;;;;;;11.15;3.33;;;16.20;99.90;;;;;;4992761;28;20042;-77
2022/07/22 00:20:22;;;;;;;11.13;3.55;;;16.10;99.90;;;;;;4995078;28;20772;-77
2022/07/22 00:22:48;;;;;;;12.05;2.83;;;16.10;99.90;;;;;;4989409;28;20038;-77
2022/07/22 00:25:13;;;;;;;9.50;2.75;;;16.10;99.90;;;;;;4990550;28;20125;-77
2022/07/22 00:27:39;;;;;;;12.32;3.33;;;16.10;99.90;;;;;;5003531;28;20121;-77
2022/07/22 00:30:05;;;;;;;12.68;3.30;;;16.10;99.90;;;;;;4996128;28;20049;-76
2022/07/22 00:32:30;;;;;;;9.90;2.88;;;16.00;99.90;;;;;;4995556;28;20841;-76
2022/07/22 00:34:56;;;;;;;10.48;2.83;;;16.20;99.90;;;;;;4991991;28;20050;-77
2022/07/22 00:37:22;;;;;;;12.38;2.80;;;16.10;99.90;;;;;;4993080;28;20027;-76
2022/07/22 00:39:48;;;;;;;15.65;3.00;;;16.10;99.90;;;;;;4994451;28;20120;-77
2022/07/22 00:42:14;;;;;;;14.45;3.20;;;16.20;99.90;;;;;;4998411;28;20200;-77
2022/07/22 00:44:39;;;;;;;10.25;2.78;;;16.10;99.90;;;;;;4993836;28;20053;-76
2022/07/22 00:47:05;;;;;;;9.98;2.63;;;16.10;99.90;;;;;;4992063;28;20034;-77
2022/07/22 00:49:31;;;;;;;13.05;3.17;;;16.10;99.90;;;;;;4995026;28;20046;-76
2022/07/22 00:51:57;;;;;;;9.57;2.75;;;16.10;99.90;;;;;;4993920;28;20030;-77
2022/07/22 00:54:22;;;;;;;12.20;3.00;;;16.10;99.90;;;;;;5006408;28;20531;-77
2022/07/22 00:56:48;;;;;;;8.23;2.58;;;16.10;99.90;;;;;;5012201;28;20095;-77
2022/07/22 00:59:14;;;;;;;9.63;2.92;;;16.10;99.90;;;;;;4996711;28;20082;-77
2022/07/22 01:01:39;;;;;;;10.10;2.63;;;16.10;99.90;;;;;;4994415;28;20041;-77
2022/07/22 01:04:05;;;;;;;10.18;2.67;;;16.10;99.90;;;;;;5009066;28;20031;-76
2022/07/22 01:06:32;;;;;;;9.88;2.75;;;16.10;99.90;;;;;;4994507;28;20407;-77
2022/07/22 01:08:57;;;;;;;7.95;2.40;;;16.10;99.90;;;;;;4988398;28;20125;-77
2022/07/22 01:11:23;;;;;;;7.38;2.15;;;16.00;99.90;;;;;;5002469;28;20521;-76
2022/07/22 01:13:50;;;;;;;13.63;2.42;;;16.10;99.90;;;;;;4992788;28;20037;-76
2022/07/22 01:16:16;;;;;;;13.98;2.38;;;16.10;99.90;;;;;;4993126;28;20035;-77
2022/07/22 01:18:43;;;;;;;9.45;2.40;;;16.00;99.90;;;;;;5003563;28;20042;-77
2022/07/22 01:21:09;;;;;;;8.75;2.25;;;16.00;99.90;;;;;;4993991;28;20041;-77
2022/07/22 01:23:36;;;;;;;10.48;2.38;;;16.10;99.90;;;;;;5005537;28;20065;-77
2022/07/22 01:26:02;;;;;;;14.25;2.85;;;16.00;99.90;;;;;;4994806;28;20045;-77
2022/07/22 01:28:27;;;;;;;8.57;2.25;;;16.00;99.90;;;;;;4996023;28;20042;-77
2022/07/22 01:30:53;;;;;;;7.28;2.25;;;16.00;99.90;;;;;;5000437;28;20110;-77
2022/07/22 01:33:21;;;;;;;11.52;2.40;;;16.10;99.90;;;;;;5009581;28;20557;-77
2022/07/22 01:35:47;;;;;;;9.38;2.28;;;15.90;99.90;;;;;;5009561;28;20045;-76
2022/07/22 01:38:13;;;;;;;7.43;1.90;;;16.00;99.90;;;;;;4989167;28;20034;-76
2022/07/22 01:40:40;;;;;;;9.40;2.13;;;15.90;99.90;;;;;;5011101;28;20562;-76
2022/07/22 01:43:06;;;;;;;8.65;1.90;;;15.90;99.90;;;;;;5006200;28;20115;-76
2022/07/22 01:45:31;;;;;;;9.65;2.03;;;15.90;99.90;;;;;;5000807;28;20120;-76
2022/07/22 01:47:58;;;;;;;10.68;1.90;;;15.90;99.90;;;;;;5004012;28;20050;-76
2022/07/22 01:50:23;;;;;;;8.13;2.40;;;16.00;99.90;;;;;;4994969;28;20045;-76
2022/07/22 01:52:49;;;;;;;6.38;2.13;;;15.90;99.90;;;;;;5008642;28;20412;-76
2022/07/22 01:55:14;;;;;;;9.23;2.10;;;15.90;99.90;;;;;;4994582;28;20565;-77
2022/07/22 01:57:40;;;;;;;5.25;1.98;;;15.90;99.90;;;;;;5001158;28;20042;-76
2022/07/22 02:00:08;;;;;;;7.13;2.33;;;15.90;99.90;;;;;;4997893;28;20125;-76
2022/07/22 02:02:34;;;;;;;8.48;1.90;;;15.90;99.90;;;;;;5003244;28;20038;-77
2022/07/22 02:05:00;;;;;;;7.47;1.92;;;15.90;99.90;;;;;;4993937;28;20061;-76
2022/07/22 02:07:26;;;;;;;10.23;1.92;;;15.90;99.90;;;;;;5013701;28;20112;-76
2022/07/22 02:09:52;;;;;;;5.93;2.10;;;15.90;99.90;;;;;;4996554;28;20514;-76
2022/07/22 02:12:19;;;;;;;6.03;2.28;;;15.90;99.90;;;;;;5011990;28;20042;-76
2022/07/22 02:14:45;;;;;;;8.52;1.80;;;15.90;99.90;;;;;;4998289;28;20495;-76
2022/07/22 02:17:11;;;;;;;7.97;1.80;;;15.90;99.90;;;;;;4997615;28;20026;-76
2022/07/22 02:19:37;;;;;;;10.20;2.17;;;15.80;99.90;;;;;;4993668;28;20113;-76
2022/07/22 02:22:03;;;;;;;5.38;1.80;;;15.90;99.90;;;;;;5006960;28;20216;-76
2022/07/22 02:24:29;;;;;;;5.80;1.90;;;15.80;99.90;;;;;;5004055;28;20042;-76
2022/07/22 02:26:55;;;;;;;8.18;2.15;;;15.80;99.90;;;;;;4990148;28;20496;-76
2022/07/22 02:29:21;;;;;;;5.85;1.65;;;15.80;99.90;;;;;;4995027;28;20038;-76
2022/07/22 02:31:46;;;;;;;6.03;1.45;;;15.80;99.90;;;;;;5008825;28;20053;-77
2022/07/22 02:34:12;;;;;;;6.25;1.83;;;15.80;99.90;;;;;;4991140;28;20038;-76
2022/07/22 02:36:38;;;;;;;5.80;1.58;;;15.80;99.90;;;;;;4999025;28;20049;-76
2022/07/22 02:39:04;;;;;;;9.65;1.90;;;15.80;99.90;;;;;;4993170;28;20097;-77
2022/07/22 02:41:29;;;;;;;5.28;1.65;;;15.80;99.90;;;;;;4995218;28;20038;-76
2022/07/22 02:43:55;;;;;;;5.00;1.50;;;15.60;99.90;;;;;;4996399;28;20050;-76
2022/07/22 02:46:21;;;;;;;5.85;1.52;;;15.70;99.90;;;;;;4995164;28;20045;-76
2022/07/22 02:48:47;;;;;;;3.95;1.52;;;15.70;99.90;;;;;;4993676;28;20049;-76
2022/07/22 02:51:12;;;;;;;3.88;1.45;;;15.70;99.90;;;;;;5007186;28;20038;-76
2022/07/22 02:53:38;;;;;;;7.57;1.60;;;15.70;99.90;;;;;;4994863;28;20061;-77
2022/07/22 02:56:04;;;;;;;8.13;1.60;;;15.70;99.90;;;;;;4994453;28;20050;-77
2022/07/22 02:58:30;;;;;;;5.50;1.50;;;15.70;99.90;;;;;;5000317;28;20428;-77
2022/07/22 03:00:55;;;;;;;5.15;1.52;;;15.70;99.90;;;;;;4991912;28;20085;-77
2022/07/22 03:03:21;;;;;;;7.20;1.30;;;15.70;99.90;;;;;;4992382;28;20034;-77
2022/07/22 03:05:46;;;;;;;6.70;1.80;;;15.70;99.90;;;;;;5023884;28;20041;-76
2022/07/22 03:08:12;;;;;;;4.40;1.70;;;15.70;99.90;;;;;;4995723;28;20038;-77
2022/07/22 03:10:38;;;;;;;6.00;1.67;;;15.70;99.90;;;;;;5004810;28;20045;-77
2022/07/22 03:13:03;;;;;;;5.78;1.50;;;15.70;99.90;;;;;;4994158;28;20109;-76
2022/07/22 03:15:29;;;;;;;7.70;1.58;;;15.80;99.90;;;;;;4996889;28;20070;-76
2022/07/22 03:17:54;;;;;;;3.92;1.70;;;15.80;99.90;;;;;;4996873;28;20058;-77
2022/07/22 03:20:20;;;;;;;5.40;1.70;;;15.80;99.90;;;;;;5005717;28;20034;-77
2022/07/22 03:22:46;;;;;;;7.47;1.50;;;15.70;99.90;;;;;;4991908;28;20034;-77
2022/07/22 03:25:11;;;;;;;6.90;1.83;;;15.80;99.90;;;;;;5009399;28;20120;-77
2022/07/22 03:27:37;;;;;;;7.95;1.65;;;15.80;99.90;;;;;;5007503;28;20524;-76
2022/07/22 03:30:04;;;;;;;4.57;1.85;;;15.80;99.90;;;;;;5003825;28;20096;-77
2022/07/22 03:32:29;;;;;;;5.70;1.58;;;15.70;99.90;;;;;;4994353;28;20045;-77
2022/07/22 03:34:55;;;;;;;7.80;1.90;;;15.80;99.90;;;;;;4994316;28;20046;-77
2022/07/22 03:37:21;;;;;;;5.53;1.63;;;15.70;99.90;;;;;;4990668;28;20449;-77
2022/07/22 03:39:46;;;;;;;6.07;1.55;;;15.70;99.90;;;;;;4992080;28;20034;-77
2022/07/22 03:42:12;;;;;;;7.95;2.15;;;15.60;99.90;;;;;;5002897;28;20038;-77
2022/07/22 03:44:37;;;;;;;3.60;1.58;;;15.60;99.90;;;;;;4997609;28;20519;-77
2022/07/22 03:47:03;;;;;;;8.18;1.60;;;15.60;99.90;;;;;;4983490;28;20143;-77
2022/07/22 03:49:30;;;;;;;5.93;1.50;;;15.60;99.90;;;;;;4996010;28;20034;-77
2022/07/22 03:51:56;;;;;;;4.55;1.70;;;15.70;99.90;;;;;;4992168;28;20360;-77
2022/07/22 03:54:21;;;;;;;5.05;1.60;;;15.60;99.90;;;;;;4996835;28;20084;-77
2022/07/22 03:56:47;;;;;;;7.63;1.52;;;15.70;99.90;;;;;;4994727;28;20080;-77
2022/07/22 03:59:12;;;;;;;7.22;1.73;;;15.70;99.90;;;;;;4990134;28;20041;-77
2022/07/22 04:01:38;;;;;;;9.23;1.90;;;15.70;99.90;;;;;;5006531;28;20030;-77
2022/07/22 04:04:04;;;;;;;4.13;1.60;;;15.60;99.90;;;;;;4994303;28;20034;-77
2022/07/22 04:06:29;;;;;;;7.13;1.70;;;15.60;99.90;;;;;;4994867;28;20393;-77
2022/07/22 04:08:55;;;;;;;9.05;2.30;;;15.70;99.90;;;;;;5008886;28;20026;-77
2022/07/22 04:11:20;;;;;;;5.30;1.80;;;15.60;99.90;;;;;;4992550;28;20121;-77
2022/07/22 04:13:46;;;;;;;7.72;1.90;;;15.60;99.90;;;;;;4994099;28;20045;-77
2022/07/22 04:16:12;;;;;;;8.10;1.50;;;15.60;99.90;;;;;;4994728;28;20050;-77
2022/07/22 04:18:37;;;;;;;6.30;1.90;;;15.70;99.90;;;;;;4995334;28;20038;-77
2022/07/22 04:21:03;;;;;;;3.53;1.58;;;15.60;99.90;;;;;;4992595;28;20027;-77
2022/07/22 04:23:28;;;;;;;7.22;1.73;;;15.70;99.90;;;;;;4991810;28;20049;-77
2022/07/22 04:25:54;;;;;;;9.75;1.90;;;15.70;99.90;;;;;;4999311;28;20045;-77
2022/07/22 04:28:20;;;;;;;4.85;1.58;;;15.70;99.90;;;;;;4991625;28;20521;-77
2022/07/22 04:30:46;;;;;;;5.47;1.63;;;15.70;99.90;;;;;;4995396;28;20045;-77
2022/07/22 04:33:12;;;;;;;6.03;1.60;;;15.70;99.90;;;;;;4991725;28;20492;-77
2022/07/22 04:35:37;;;;;;;6.72;2.00;;;15.70;99.90;;;;;;4990723;28;20038;-77
2022/07/22 04:38:03;;;;;;;5.88;1.73;;;15.60;99.90;;;;;;4997704;28;21876;-77
2022/07/22 04:40:29;;;;;;;7.15;1.67;;;15.70;99.90;;;;;;4996936;28;20030;-77
2022/07/22 04:42:54;;;;;;;8.32;1.73;;;15.70;99.90;;;;;;4997721;28;20041;-77
2022/07/22 04:45:20;;;;;;;5.45;1.67;;;15.70;99.90;;;;;;4992401;28;20038;-77
2022/07/22 04:47:45;;;;;;;5.07;1.75;;;15.70;99.90;;;;;;4993295;28;20066;-77
2022/07/22 04:50:11;;;;;;;3.83;1.45;;;15.70;99.90;;;;;;4998392;28;20033;-77
2022/07/22 04:52:37;;;;;;;5.85;1.50;;;15.70;99.90;;;;;;5007472;28;20040;-77
2022/07/22 04:55:03;;;;;;;5.90;1.60;;;15.70;99.90;;;;;;5005311;28;20519;-77
2022/07/22 04:57:28;;;;;;;8.40;1.88;;;15.80;99.90;;;;;;4999606;28;20042;-77
2022/07/22 04:59:54;;;;;;;6.13;1.55;;;15.80;99.90;;;;;;5003766;28;20660;-77
2022/07/22 05:02:20;;;;;;;9.68;2.20;;;15.80;99.90;;;;;;5000725;28;21135;-77
2022/07/22 05:04:45;;;;;;;6.82;1.80;;;15.80;99.90;;;;;;4998363;28;20031;-77
2022/07/22 05:07:11;;;;;;;5.40;1.60;;;15.80;99.90;;;;;;4995162;28;20389;-77
2022/07/22 05:09:36;;;;;;;5.18;1.85;;;15.90;99.90;;;;;;4997319;28;20503;-77
2022/07/22 05:12:03;;;;;;;7.47;1.75;;;15.90;99.90;;;;;;5001106;28;20099;-77
2022/07/22 05:14:28;;;;;;;6.65;1.88;;;16.00;99.90;;;;;;4990961;28;20431;-77
2022/07/22 05:16:54;;;;;;;4.40;1.73;;;16.10;99.90;;;;;;4985479;28;20046;-77
2022/07/22 05:19:19;;;;;;;8.80;2.00;;;16.10;99.90;;;;;;5001480;28;20038;-77
2022/07/22 05:21:45;;;;;;;4.32;1.80;;;16.10;99.90;;;;;;5011702;28;20090;-77
2022/07/22 05:24:11;;;;;;;7.32;1.90;;;16.10;99.90;;;;;;4995894;28;20041;-77
2022/07/22 05:26:37;;;;;;;8.43;1.83;;;16.20;99.90;;;;;;4999893;28;20048;-77
2022/07/22 05:29:03;;;;;;;5.60;1.35;;;16.10;99.90;;;;;;4994653;28;20030;-77
2022/07/22 05:31:29;;;;;;;7.22;1.50;;;16.10;99.90;;;;;;5000715;28;20042;-77
2022/07/22 05:33:54;;;;;;;6.35;1.52;;;16.10;99.90;;;;;;4995309;28;20046;-77
2022/07/22 05:36:20;;;;;;;5.25;1.60;;;16.20;99.90;;;;;;4997633;28;20069;-77
2022/07/22 05:38:45;;;;;;;7.53;1.73;;;16.20;99.90;;;;;;4996792;28;20057;-77
2022/07/22 05:41:11;;;;;;;6.85;1.70;;;16.20;99.90;;;;;;4995175;28;20034;-77
2022/07/22 05:43:36;;;;;;;6.53;1.95;;;16.20;99.90;;;;;;4996622;28;20492;-77
2022/07/22 05:46:02;;;;;;;5.28;1.60;;;16.10;99.90;;;;;;5004095;28;20696;-77
2022/07/22 05:48:28;;;;;;;6.40;1.50;;;16.30;99.90;;;;;;4993080;28;20077;-77
2022/07/22 05:50:53;;;;;;;5.18;1.50;;;16.20;99.90;;;;;;4998578;28;20053;-77
2022/07/22 05:53:19;;;;;;;5.85;1.40;;;16.30;99.90;;;;;;5000512;28;20399;-77
2022/07/22 05:55:44;;;;;;;8.45;1.80;;;16.20;99.90;;;;;;5010702;28;20034;-77
2022/07/22 05:58:10;;;;;;;6.03;1.50;;;16.30;99.90;;;;;;5005873;28;20870;-77
2022/07/22 06:00:35;;;;;;;7.25;1.92;;;16.30;99.90;;;;;;4993964;28;20110;-77
2022/07/22 06:03:01;;;;;;;5.93;1.70;;;16.30;99.90;;;;;;4996947;28;20041;-77
2022/07/22 06:05:27;;;;;;;5.63;1.58;;;16.20;99.90;;;;;;4996644;28;20069;-77
2022/07/22 06:07:52;;;;;;;5.28;1.65;;;16.30;99.90;;;;;;4994748;28;20173;-77
2022/07/22 06:10:18;;;;;;;6.78;1.77;;;16.30;99.90;;;;;;4997301;28;20050;-77
2022/07/22 06:12:43;;;;;;;4.90;1.50;;;16.30;99.90;;;;;;4994730;28;20427;-77
2022/07/22 06:15:09;;;;;;;5.30;1.48;;;16.40;99.90;;;;;;4992854;28;20054;-77
2022/07/22 06:17:35;;;;;;;4.97;1.42;;;16.40;99.90;;;;;;5009367;28;20042;-77
2022/07/22 06:20:01;;;;;;;6.45;1.45;;;16.50;99.90;;;;;;4996835;28;20601;-77
2022/07/22 06:22:27;;;;;;;9.32;1.60;;;16.50;99.90;;;;;;4999410;28;20162;-77
2022/07/22 06:24:53;;;;;;;6.50;1.75;;;16.60;99.90;;;;;;4990138;28;20037;-77
2022/07/22 06:27:18;;;;;;;6.55;1.50;;;16.60;99.90;;;;;;4999951;28;20034;-77
2022/07/22 06:29:44;;;;;;;7.40;1.63;;;16.70;99.90;;;;;;5000951;28;20095;-77
2022/07/22 06:32:09;;;;;;;3.90;1.70;;;16.70;99.90;;;;;;5004417;28;20752;-77
2022/07/22 06:34:35;;;;;;;9.82;1.80;;;16.90;99.90;;;;;;5015753;28;20034;-77
2022/07/22 06:37:01;;;;;;;7.10;2.03;;;17.00;99.90;;;;;;5013318;28;20026;-78
2022/07/22 06:39:27;;;;;;;7.25;1.80;;;17.00;99.90;;;;;;4999332;28;20092;-77
2022/07/22 06:41:52;;;;;;;6.07;1.85;;;17.10;99.90;;;;;;4995493;28;20408;-77
2022/07/22 06:44:18;;;;;;;4.63;1.70;;;17.20;99.90;;;;;;5000527;28;20501;-77
2022/07/22 06:46:43;;;;;;;6.90;2.03;;;17.10;99.90;;;;;;5003185;28;20061;-77
2022/07/22 06:49:09;;;;;;;7.03;1.75;;;17.10;99.90;;;;;;4990373;28;20078;-77
2022/07/22 06:51:34;;;;;;;7.32;1.45;;;17.00;99.90;;;;;;5001291;28;20046;-77
2022/07/22 06:54:00;;;;;;;9.45;1.50;;;17.00;99.90;;;;;;5001738;28;20042;-77
2022/07/22 06:56:26;;;;;;;7.30;1.80;;;17.00;99.90;;;;;;4995650;28;20046;-77
2022/07/22 06:58:52;;;;;;;7.30;1.80;;;16.90;99.90;;;;;;5009374;28;20037;-78
2022/07/22 07:01:17;;;;;;;4.85;1.27;;;16.90;99.90;;;;;;5007773;28;20042;-78
2022/07/22 07:03:43;;;;;;;6.35;1.80;;;16.90;99.90;;;;;;4997755;28;20026;-78
2022/07/22 07:06:11;;;;;;;5.18;1.63;;;16.90;99.90;;;;;;4993185;28;20408;-78
2022/07/22 07:08:37;;;;;;;6.15;1.30;;;16.90;99.90;;;;;;5008809;28;20042;-78
2022/07/22 07:11:03;;;;;;;6.75;1.50;;;17.00;99.90;;;;;;5006331;28;20041;-78
2022/07/22 07:13:29;;;;;;;7.07;1.60;;;17.10;99.90;;;;;;4994516;28;20045;-78
2022/07/22 07:15:55;;;;;;;7.50;1.70;;;17.20;99.90;;;;;;4999957;28;20056;-78
2022/07/22 07:18:21;;;;;;;8.27;1.52;;;17.20;99.90;;;;;;4980002;28;20151;-77
2022/07/22 07:20:46;;;;;;;4.93;1.27;;;17.30;99.90;;;;;;4998387;28;20100;-78
2022/07/22 07:23:12;;;;;;;7.45;1.55;;;17.20;99.90;;;;;;4982237;28;20047;-78
2022/07/22 07:25:38;;;;;;;4.95;1.33;;;17.30;99.90;;;;;;4991037;28;20050;-78
2022/07/22 07:28:04;;;;;;;6.30;1.38;;;17.20;99.90;;;;;;4991894;28;20057;-78
2022/07/22 07:30:29;;;;;;;6.80;1.42;;;17.30;99.90;;;;;;5005258;28;20086;-78
2022/07/22 07:32:55;;;;;;;6.80;1.58;;;17.30;99.90;;;;;;4989827;28;20042;-78
2022/07/22 07:35:20;;;;;;;5.15;1.40;;;17.40;99.90;;;;;;4996090;28;20412;-78
2022/07/22 07:37:46;;;;;;;4.32;1.50;;;17.30;99.90;;;;;;5012107;28;20448;-77
2022/07/22 07:40:12;;;;;;;7.90;1.50;;;17.40;99.90;;;;;;5006028;28;20112;-77
2022/07/22 07:42:38;;;;;;;7.88;1.58;;;17.50;99.90;;;;;;5002669;28;20029;-78
2022/07/22 07:45:04;;;;;;;7.28;1.92;;;17.50;99.90;;;;;;5000631;28;20096;-78
2022/07/22 07:47:30;;;;;;;10.75;1.92;;;17.50;99.90;;;;;;4993992;28;20049;-78
2022/07/22 07:49:57;;;;;;;6.68;1.50;;;17.40;99.90;;;;;;4996862;28;20031;-78
2022/07/22 07:52:23;;;;;;;7.25;1.75;;;17.50;99.90;;;;;;4995704;28;20050;-78
2022/07/22 07:54:49;;;;;;;9.75;1.48;;;17.50;99.90;;;;;;4993776;28;20496;-77
2022/07/22 07:57:14;;;;;;;12.73;1.80;;;17.60;99.90;;;;;;4996240;28;20101;-78
2022/07/22 07:59:40;;;;;;;7.97;1.73;;;17.60;99.90;;;;;;4995926;28;20527;-78
2022/07/22 08:02:07;;;;;;;7.85;1.80;;;17.80;99.90;;;;;;5003363;28;20041;-77
2022/07/22 08:04:35;;;;;;;4.53;1.50;;;17.80;99.90;;;;;;4997378;28;20034;-78
2022/07/22 08:07:01;;;;;;;31.27;6.80;;;17.80;99.90;;;;;;4986517;28;20034;-78
2022/07/22 08:09:26;;;;;;;7.10;1.83;;;17.80;99.90;;;;;;4996030;28;20070;-78
2022/07/22 08:11:52;;;;;;;3.95;1.33;;;17.80;99.90;;;;;;5006647;28;20077;-78
2022/07/22 08:14:18;;;;;;;9.35;1.30;;;17.80;99.90;;;;;;5004889;28;20042;-78
2022/07/22 08:16:43;;;;;;;6.15;1.40;;;17.80;99.90;;;;;;4988828;28;20058;-78
2022/07/22 08:19:09;;;;;;;5.18;1.10;;;17.70;99.90;;;;;;5006006;28;20138;-78
2022/07/22 08:21:35;;;;;;;4.85;1.17;;;17.80;99.90;;;;;;5002187;28;20034;-78
2022/07/22 08:24:00;;;;;;;3.15;1.27;;;17.80;99.90;;;;;;5003858;28;20046;-78
2022/07/22 08:26:26;;;;;;;3.45;0.95;;;17.80;99.90;;;;;;5030032;28;20050;-78
2022/07/22 08:28:52;;;;;;;6.28;1.30;;;17.90;99.90;;;;;;5019408;28;20112;-78
2022/07/22 08:31:17;;;;;;;5.82;1.33;;;18.00;99.90;;;;;;5006144;28;20038;-78
2022/07/22 08:33:43;;;;;;;8.95;1.42;;;18.10;99.90;;;;;;5010393;28;20115;-81
2022/07/22 08:36:09;;;;;;;7.18;1.25;;;18.00;99.90;;;;;;4992073;28;20041;-77
2022/07/22 08:38:35;;;;;;;5.57;1.20;;;18.00;99.90;;;;;;4999930;28;20068;-79
2022/07/22 08:41:03;;;;;;;5.57;1.00;;;18.00;99.90;;;;;;4997065;28;20113;-78
2022/07/22 08:43:30;;;;;;;12.57;1.55;;;18.00;99.90;;;;;;5013566;28;20100;-79
2022/07/22 08:45:56;;;;;;;4.47;1.00;;;18.00;99.90;;;;;;4996188;28;20574;-78
2022/07/22 08:48:22;;;;;;;4.90;1.20;;;18.00;99.90;;;;;;5015268;28;20096;-78
2022/07/22 08:50:48;;;;;;;4.32;1.20;;;18.20;99.90;;;;;;5014230;28;20037;-78
2022/07/22 08:53:14;;;;;;;7.80;1.23;;;18.20;99.90;;;;;;5012844;28;20124;-78
2022/07/22 08:55:46;;;;;;;8.60;1.45;;;18.20;99.90;;;;;;5014715;28;20049;-78
2022/07/22 08:58:12;;;;;;;6.75;1.38;;;18.20;99.90;;;;;;5011576;28;20495;-79
2022/07/22 09:00:39;;;;;;;5.05;1.15;;;18.10;99.90;;;;;;5012193;28;20117;-76
2022/07/22 09:03:27;;;;;;;4.88;1.20;;;18.30;99.90;;;;;;5011964;28;20081;-78
2022/07/22 09:05:53;;;;;;;7.13;1.38;;;18.20;99.90;;;;;;5017537;28;20121;-79
2022/07/22 09:08:20;;;;;;;5.43;1.17;;;18.20;99.90;;;;;;5010896;28;20121;-78
2022/07/22 09:10:45;;;;;;;4.10;1.00;;;18.30;99.90;;;;;;5007028;28;20388;-78
2022/07/22 09:13:13;;;;;;;4.05;1.00;;;18.50;99.90;;;;;;5001304;28;20097;-78
2022/07/22 09:15:50;;;;;;;5.45;0.90;;;18.50;99.90;;;;;;5002732;28;20050;-79
2022/07/22 09:18:15;;;;;;;3.85;1.02;;;18.60;99.90;;;;;;5003001;28;20121;-79
2022/07/22 09:20:43;;;;;;;5.78;1.58;;;18.40;99.90;;;;;;5013374;28;20122;-78
2022/07/22 09:23:15;;;;;;;5.57;1.00;;;18.30;99.90;;;;;;4997302;28;20046;-79
2022/07/22 09:25:41;;;;;;;4.13;1.20;;;18.30;99.90;;;;;;5011285;28;20050;-79
2022/07/22 09:28:07;;;;;;;5.63;1.10;;;18.20;99.90;;;;;;4997014;28;20531;-78
2022/07/22 09:30:38;;;;;;;4.80;0.73;;;18.30;99.90;;;;;;5011022;28;20038;-81
2022/07/22 09:33:05;;;;;;;6.20;1.20;;;18.20;99.90;;;;;;5006139;28;20503;-79
2022/07/22 09:35:31;;;;;;;6.13;1.30;;;18.10;99.90;;;;;;4997753;28;20050;-79
2022/07/22 09:38:08;;;;;;;2.60;0.90;;;18.10;99.90;;;;;;5002006;28;20048;-79
2022/07/22 09:40:36;;;;;;;6.43;1.10;;;18.20;99.90;;;;;;4997872;28;20093;-79
2022/07/22 09:43:11;;;;;;;5.88;1.13;;;18.20;99.90;;;;;;5003001;28;20077;-80
2022/07/22 09:45:51;;;;;;;4.78;0.95;;;18.30;99.90;;;;;;4999428;28;20119;-79
2022/07/22 09:48:18;;;;;;;8.80;0.93;;;18.40;99.90;;;;;;5011783;28;20523;-78
2022/07/22 09:50:45;;;;;;;2.85;0.82;;;18.40;99.90;;;;;;4995674;28;20052;-79
2022/07/22 09:53:10;;;;;;;2.53;0.82;;;18.50;99.90;;;;;;5002108;28;20044;-79
2022/07/22 09:55:38;;;;;;;4.22;0.77;;;18.50;99.90;;;;;;5000510;28;20046;-80
2022/07/22 09:58:05;;;;;;;2.63;0.90;;;18.50;99.90;;;;;;4994618;28;20042;-79
2022/07/22 10:00:31;;;;;;;2.83;0.60;;;18.60;99.90;;;;;;5007341;28;20042;-79
2022/07/22 10:02:59;;;;;;;2.10;0.80;;;18.60;99.90;;;;;;4997298;28;20040;-79
2022/07/22 10:05:30;;;;;;;4.68;0.80;;;18.70;99.90;;;;;;5005643;28;20033;-79
2022/07/22 10:07:56;;;;;;;2.47;1.00;;;18.90;99.90;;;;;;5001503;28;20084;-79
2022/07/22 10:10:27;;;;;;;3.00;0.80;;;19.00;99.90;;;;;;5011166;28;20117;-79
2022/07/22 10:12:55;;;;;;;2.38;0.70;;;19.10;99.90;;;;;;5015250;28;20460;-80
2022/07/22 10:15:22;;;;;;;4.07;0.88;;;19.20;99.90;;;;;;4995894;28;20053;-79
2022/07/22 10:17:52;;;;;;;4.32;0.75;;;19.30;99.90;;;;;;5011243;28;20035;-79
2022/07/22 10:20:20;;;;;;;2.80;0.70;;;19.40;99.90;;;;;;4993400;28;20519;-79
2022/07/22 10:22:51;;;;;;;3.10;0.80;;;19.60;99.90;;;;;;4984508;28;20053;-80
2022/07/22 10:25:18;;;;;;;2.97;0.93;;;19.80;99.90;;;;;;5007418;28;20044;-79
2022/07/22 10:27:53;;;;;;;6.03;1.13;;;19.80;99.90;;;;;;5003019;28;20046;-79
2022/07/22 10:30:26;;;;;;;4.07;0.90;;;19.80;99.90;;;;;;4999504;28;20572;-79
2022/07/22 10:33:11;;;;;;;2.78;0.75;;;19.80;99.90;;;;;;5005005;28;20064;-81
2022/07/22 10:35:53;;;;;;;4.40;1.00;;;19.80;99.90;;;;;;4996987;28;20404;-80
2022/07/22 10:38:21;;;;;;;4.63;0.98;;;19.70;99.90;;;;;;4994834;28;20049;-80
2022/07/22 10:40:48;;;;;;;5.18;0.98;;;19.60;99.90;;;;;;5011450;28;20065;-79
2022/07/22 10:43:15;;;;;;;4.15;0.93;;;19.50;99.90;;;;;;4994712;28;20042;-79
2022/07/22 10:45:53;;;;;;;4.70;1.23;;;19.40;99.90;;;;;;5008681;28;20101;-79
2022/07/22 10:48:32;;;;;;;2.90;0.88;;;19.50;99.90;;;;;;4988177;28;20042;-80
2022/07/22 10:51:20;;;;;;;2.83;0.77;;;19.30;99.90;;;;;;4996679;28;20093;-79
2022/07/22 10:53:51;;;;;;;3.60;1.13;;;19.40;99.90;;;;;;4989952;28;20042;-78
2022/07/22 10:56:26;;;;;;;7.22;1.08;;;19.40;99.90;;;;;;4995104;28;20038;-79
2022/07/22 10:58:56;;;;;;;2.75;1.13;;;19.30;99.90;;;;;;5007893;28;20385;-78
2022/07/22 11:01:32;;;;;;;2.97;0.90;;;19.30;99.90;;;;;;4995069;28;20034;-79
2022/07/22 11:04:14;;;;;;;2.47;0.88;;;19.10;99.90;;;;;;5007019;28;20037;-80
2022/07/22 11:06:40;;;;;;;3.35;0.90;;;19.10;99.90;;;;;;5008803;28;20046;-79
2022/07/22 11:09:08;;;;;;;3.72;0.80;;;19.10;99.90;;;;;;5016881;28;20042;-79
2022/07/22 11:12:11;;;;;;;6.35;0.90;;;19.10;99.90;;;;;;5010911;28;20050;-80
2022/07/22 11:14:37;;;;;;;3.67;0.95;;;19.10;99.90;;;;;;4985335;28;20141;-80
2022/07/22 11:17:13;;;;;;;3.22;1.25;;;19.10;99.90;;;;;;5013193;28;20112;-79
2022/07/22 11:19:40;;;;;;;6.45;1.10;;;19.00;99.90;;;;;;5003848;28;20134;-80
2022/07/22 11:22:08;;;;;;;3.28;0.82;;;19.10;99.90;;;;;;4994418;28;20035;-80
2022/07/22 11:24:34;;;;;;;4.85;1.00;;;19.20;99.90;;;;;;4976676;28;20042;-79
2022/07/22 11:27:01;;;;;;;2.63;0.88;;;19.10;99.90;;;;;;5010156;28;20571;-79
2022/07/22 11:29:36;;;;;;;3.67;0.85;;;19.20;99.90;;;;;;4993722;28;20038;-78
2022/07/22 11:32:05;;;;;;;3.72;1.00;;;19.40;99.90;;;;;;5009954;28;20161;-79
2022/07/22 11:34:30;;;;;;;2.53;0.95;;;19.60;99.90;;;;;;4993524;28;20061;-79
2022/07/22 11:36:57;;;;;;;2.65;0.60;;;19.80;99.90;;;;;;5010527;28;20038;-78
2022/07/22 11:39:28;;;;;;;5.85;0.90;;;19.80;99.90;;;;;;4996087;28;20081;-79
2022/07/22 11:41:56;;;;;;;2.00;0.93;;;19.90;99.90;;;;;;5010656;28;20072;-79
2022/07/22 11:44:25;;;;;;;5.82;1.00;;;20.00;99.90;;;;;;5003568;28;20041;-78
2022/07/22 11:46:51;;;;;;;2.45;0.80;;;20.10;99.90;;;;;;5007987;28;20052;-80
2022/07/22 11:49:20;;;;;;;3.50;0.90;;;20.00;99.90;;;;;;5000647;28;20406;-81
2022/07/22 11:51:45;;;;;;;2.05;0.93;;;19.90;99.90;;;;;;5002055;28;20135;-79
2022/07/22 11:54:11;;;;;;;5.10;1.00;;;19.80;99.90;;;;;;4995738;28;20042;-80
2022/07/22 11:56:37;;;;;;;4.45;1.00;;;19.70;99.90;;;;;;4991373;28;20038;-80
2022/07/22 11:59:06;;;;;;;1.77;0.65;;;19.80;99.90;;;;;;4997319;28;20073;-80
2022/07/22 12:01:34;;;;;;;3.55;0.85;;;19.70;99.90;;;;;;5005621;28;20076;-79
2022/07/22 12:04:03;;;;;;;3.83;0.75;;;19.60;99.90;;;;;;5000852;28;20080;-79
2022/07/22 12:06:33;;;;;;;2.20;0.70;;;19.70;99.90;;;;;;4980789;28;20485;-78
2022/07/22 12:09:13;;;;;;;4.00;0.90;;;19.60;99.90;;;;;;4999133;28;20098;-79
2022/07/22 12:11:42;;;;;;;5.55;0.80;;;19.40;99.90;;;;;;5011172;28;20424;-79
2022/07/22 12:14:09;;;;;;;4.65;0.80;;;19.20;99.90;;;;;;5005508;28;20116;-80
2022/07/22 12:16:36;;;;;;;4.95;0.90;;;19.20;99.90;;;;;;5002486;28;20078;-79
2022/07/22 12:19:07;;;;;;;3.42;0.73;;;19.20;99.90;;;;;;4983677;28;20049;-80
2022/07/22 12:21:35;;;;;;;3.85;0.60;;;19.10;99.90;;;;;;5015314;28;20069;-80
2022/07/22 12:24:04;;;;;;;2.13;0.70;;;19.10;99.90;;;;;;4996926;28;20438;-80
2022/07/22 12:26:58;;;;;;;5.75;0.98;;;19.30;99.90;;;;;;5011544;28;20049;-79
2022/07/22 12:29:27;;;;;;;2.70;0.60;;;19.40;99.90;;;;;;5012211;28;20050;-80
2022/07/22 12:31:59;;;;;;;2.92;0.73;;;19.30;99.90;;;;;;4997058;28;20300;-81
2022/07/22 12:34:32;;;;;;;2.65;0.70;;;19.40;99.90;;;;;;5012970;28;20041;-80
2022/07/22 12:36:58;;;;;;;3.38;0.77;;;19.50;99.90;;;;;;5008873;28;20042;-80
2022/07/22 12:39:23;;;;;;;3.28;0.60;;;19.40;99.90;;;;;;5009941;28;20034;-80
2022/07/22 12:41:54;;;;;;;4.40;0.57;;;19.50;99.90;;;;;;5026724;28;20041;-79
2022/07/22 12:44:22;;;;;;;2.40;0.52;;;19.70;99.90;;;;;;4998082;28;20037;-79